sensor_id;sensor_type;location;lat;lon;timestamp;P1;durP1;ratioP1;P2;durP2;ratioP2
51957;SDS011;41120;51.820;20.804;2023-12-20T00:01:14;17.85;;;11.40;;
51957;SDS011;41120;51.820;20.804;2023-12-20T00:09:48;19.35;;;10.85;;
51957;SDS011;41120;51.820;20.804;2023-12-20T00:12:14;19.63;;;11.05;;
51957;SDS011;41120;51.820;20.804;2023-12-20T00:14:40;19.95;;;11.65;;
51957;SDS011;41120;51.820;20.804;2023-12-20T00:17:06;17.97;;;12.00;;
51957;SDS011;41120;51.820;20.804;2023-12-20T00:19:32;21.95;;;12.13;;
51957;SDS011;41120;51.820;20.804;2023-12-20T00:21:57;19.30;;;11.27;;
51957;SDS011;41120;51.820;20.804;2023-12-20T00:24:25;19.60;;;11.65;;
51957;SDS011;41120;51.820;20.804;2023-12-20T00:26:51;16.63;;;10.73;;
51957;SDS011;41120;51.820;20.804;2023-12-20T00:29:16;20.25;;;11.25;;
51957;SDS011;41120;51.820;20.804;2023-12-20T00:31:42;19.57;;;12.63;;
51957;SDS011;41120;51.820;20.804;2023-12-20T00:34:08;20.53;;;12.17;;
51957;SDS011;41120;51.820;20.804;2023-12-20T00:36:34;17.20;;;11.77;;
51957;SDS011;41120;51.820;20.804;2023-12-20T00:39:00;19.75;;;12.40;;
51957;SDS011;41120;51.820;20.804;2023-12-20T00:41:26;18.30;;;11.93;;
51957;SDS011;41120;51.820;20.804;2023-12-20T00:43:53;18.63;;;12.00;;
51957;SDS011;41120;51.820;20.804;2023-12-20T00:46:19;18.60;;;11.82;;
51957;SDS011;41120;51.820;20.804;2023-12-20T00:48:47;18.58;;;12.30;;
51957;SDS011;41120;51.820;20.804;2023-12-20T00:51:13;18.98;;;11.55;;
51957;SDS011;41120;51.820;20.804;2023-12-20T00:53:39;16.98;;;11.25;;
51957;SDS011;41120;51.820;20.804;2023-12-20T00:56:06;19.53;;;11.03;;
51957;SDS011;41120;51.820;20.804;2023-12-20T00:58:32;18.42;;;11.52;;
51957;SDS011;41120;51.820;20.804;2023-12-20T01:00:58;18.10;;;11.57;;
51957;SDS011;41120;51.820;20.804;2023-12-20T01:03:24;19.42;;;12.73;;
51957;SDS011;41120;51.820;20.804;2023-12-20T01:05:50;20.27;;;11.33;;
51957;SDS011;41120;51.820;20.804;2023-12-20T01:08:16;15.88;;;11.98;;
51957;SDS011;41120;51.820;20.804;2023-12-20T01:10:41;17.57;;;11.20;;
51957;SDS011;41120;51.820;20.804;2023-12-20T01:13:07;17.23;;;11.83;;
51957;SDS011;41120;51.820;20.804;2023-12-20T01:15:34;18.08;;;11.25;;
51957;SDS011;41120;51.820;20.804;2023-12-20T01:18:00;19.50;;;11.63;;
51957;SDS011;41120;51.820;20.804;2023-12-20T01:20:25;18.03;;;11.33;;
51957;SDS011;41120;51.820;20.804;2023-12-20T01:22:51;19.73;;;11.77;;
51957;SDS011;41120;51.820;20.804;2023-12-20T01:25:18;19.42;;;11.50;;
51957;SDS011;41120;51.820;20.804;2023-12-20T01:27:44;17.23;;;11.80;;
51957;SDS011;41120;51.820;20.804;2023-12-20T01:30:10;18.40;;;11.67;;
51957;SDS011;41120;51.820;20.804;2023-12-20T01:32:36;17.52;;;10.45;;
51957;SDS011;41120;51.820;20.804;2023-12-20T01:35:02;19.90;;;12.30;;
51957;SDS011;41120;51.820;20.804;2023-12-20T01:37:28;18.25;;;11.63;;
51957;SDS011;41120;51.820;20.804;2023-12-20T01:39:54;18.20;;;11.57;;
51957;SDS011;41120;51.820;20.804;2023-12-20T01:42:21;19.75;;;12.13;;
51957;SDS011;41120;51.820;20.804;2023-12-20T01:44:47;18.10;;;11.73;;
51957;SDS011;41120;51.820;20.804;2023-12-20T01:47:13;19.05;;;11.75;;
51957;SDS011;41120;51.820;20.804;2023-12-20T01:49:39;17.50;;;11.67;;
51957;SDS011;41120;51.820;20.804;2023-12-20T01:52:06;22.48;;;11.43;;
51957;SDS011;41120;51.820;20.804;2023-12-20T01:54:32;19.13;;;11.95;;
51957;SDS011;41120;51.820;20.804;2023-12-20T01:57:00;20.50;;;12.25;;
51957;SDS011;41120;51.820;20.804;2023-12-20T01:59:26;17.80;;;11.18;;
51957;SDS011;41120;51.820;20.804;2023-12-20T02:01:54;21.58;;;12.38;;
51957;SDS011;41120;51.820;20.804;2023-12-20T02:04:20;20.92;;;11.95;;
51957;SDS011;41120;51.820;20.804;2023-12-20T02:06:47;16.95;;;11.98;;
51957;SDS011;41120;51.820;20.804;2023-12-20T02:09:14;18.65;;;11.95;;
51957;SDS011;41120;51.820;20.804;2023-12-20T02:11:41;17.30;;;10.98;;
51957;SDS011;41120;51.820;20.804;2023-12-20T02:14:08;16.88;;;11.63;;
51957;SDS011;41120;51.820;20.804;2023-12-20T02:16:34;19.33;;;11.25;;
51957;SDS011;41120;51.820;20.804;2023-12-20T02:19:00;18.03;;;10.80;;
51957;SDS011;41120;51.820;20.804;2023-12-20T02:21:35;16.73;;;10.55;;
51957;SDS011;41120;51.820;20.804;2023-12-20T02:24:01;18.52;;;11.27;;
51957;SDS011;41120;51.820;20.804;2023-12-20T02:26:28;20.35;;;11.73;;
51957;SDS011;41120;51.820;20.804;2023-12-20T02:28:54;18.45;;;11.82;;
51957;SDS011;41120;51.820;20.804;2023-12-20T02:31:21;17.02;;;10.63;;
51957;SDS011;41120;51.820;20.804;2023-12-20T02:33:48;20.77;;;12.50;;
51957;SDS011;41120;51.820;20.804;2023-12-20T02:36:14;16.13;;;10.85;;
51957;SDS011;41120;51.820;20.804;2023-12-20T02:38:40;18.25;;;11.70;;
51957;SDS011;41120;51.820;20.804;2023-12-20T02:41:07;21.35;;;12.57;;
51957;SDS011;41120;51.820;20.804;2023-12-20T02:43:32;18.97;;;11.83;;
51957;SDS011;41120;51.820;20.804;2023-12-20T02:45:58;17.88;;;12.05;;
51957;SDS011;41120;51.820;20.804;2023-12-20T02:48:24;17.30;;;11.83;;
51957;SDS011;41120;51.820;20.804;2023-12-20T02:50:51;17.17;;;11.55;;
51957;SDS011;41120;51.820;20.804;2023-12-20T02:53:17;17.53;;;11.50;;
51957;SDS011;41120;51.820;20.804;2023-12-20T02:55:43;17.45;;;11.32;;
51957;SDS011;41120;51.820;20.804;2023-12-20T02:58:09;17.95;;;11.65;;
51957;SDS011;41120;51.820;20.804;2023-12-20T03:00:36;17.55;;;11.40;;
51957;SDS011;41120;51.820;20.804;2023-12-20T03:03:02;18.00;;;11.47;;
51957;SDS011;41120;51.820;20.804;2023-12-20T03:05:29;16.13;;;11.90;;
51957;SDS011;41120;51.820;20.804;2023-12-20T03:07:54;17.53;;;11.13;;
51957;SDS011;41120;51.820;20.804;2023-12-20T03:10:21;19.00;;;11.57;;
51957;SDS011;41120;51.820;20.804;2023-12-20T03:12:47;17.13;;;11.50;;
51957;SDS011;41120;51.820;20.804;2023-12-20T03:15:13;15.27;;;10.93;;
51957;SDS011;41120;51.820;20.804;2023-12-20T03:17:39;17.67;;;10.97;;
51957;SDS011;41120;51.820;20.804;2023-12-20T03:20:06;17.70;;;11.73;;
51957;SDS011;41120;51.820;20.804;2023-12-20T03:22:33;16.52;;;11.40;;
51957;SDS011;41120;51.820;20.804;2023-12-20T03:24:59;18.83;;;11.50;;
51957;SDS011;41120;51.820;20.804;2023-12-20T03:27:25;17.10;;;10.90;;
51957;SDS011;41120;51.820;20.804;2023-12-20T03:29:51;17.77;;;11.32;;
51957;SDS011;41120;51.820;20.804;2023-12-20T03:32:16;17.80;;;11.53;;
51957;SDS011;41120;51.820;20.804;2023-12-20T03:34:43;18.02;;;11.02;;
51957;SDS011;41120;51.820;20.804;2023-12-20T03:37:09;15.57;;;10.57;;
51957;SDS011;41120;51.820;20.804;2023-12-20T03:39:35;16.45;;;11.02;;
51957;SDS011;41120;51.820;20.804;2023-12-20T03:42:01;16.87;;;11.33;;
51957;SDS011;41120;51.820;20.804;2023-12-20T03:44:28;15.93;;;10.68;;
51957;SDS011;41120;51.820;20.804;2023-12-20T03:46:54;16.63;;;10.50;;
51957;SDS011;41120;51.820;20.804;2023-12-20T03:49:20;15.75;;;9.88;;
51957;SDS011;41120;51.820;20.804;2023-12-20T03:51:46;14.82;;;10.35;;
51957;SDS011;41120;51.820;20.804;2023-12-20T03:54:12;19.90;;;13.75;;
51957;SDS011;41120;51.820;20.804;2023-12-20T03:56:38;18.07;;;12.23;;
51957;SDS011;41120;51.820;20.804;2023-12-20T03:59:04;53.95;;;29.02;;
51957;SDS011;41120;51.820;20.804;2023-12-20T04:01:30;18.08;;;10.93;;
51957;SDS011;41120;51.820;20.804;2023-12-20T04:03:56;17.27;;;11.23;;
51957;SDS011;41120;51.820;20.804;2023-12-20T04:06:22;42.20;;;21.77;;
51957;SDS011;41120;51.820;20.804;2023-12-20T04:08:49;35.03;;;19.60;;
51957;SDS011;41120;51.820;20.804;2023-12-20T04:11:15;24.33;;;13.40;;
51957;SDS011;41120;51.820;20.804;2023-12-20T04:13:44;58.10;;;32.08;;
51957;SDS011;41120;51.820;20.804;2023-12-20T04:16:10;32.33;;;20.25;;
51957;SDS011;41120;51.820;20.804;2023-12-20T04:18:36;28.27;;;16.67;;
51957;SDS011;41120;51.820;20.804;2023-12-20T04:21:02;16.97;;;10.53;;
51957;SDS011;41120;51.820;20.804;2023-12-20T04:23:28;34.25;;;20.65;;
51957;SDS011;41120;51.820;20.804;2023-12-20T04:25:54;20.20;;;13.07;;
51957;SDS011;41120;51.820;20.804;2023-12-20T04:28:20;51.97;;;31.90;;
51957;SDS011;41120;51.820;20.804;2023-12-20T04:30:46;15.63;;;10.80;;
51957;SDS011;41120;51.820;20.804;2023-12-20T04:33:13;17.77;;;12.25;;
51957;SDS011;41120;51.820;20.804;2023-12-20T04:35:38;13.37;;;8.90;;
51957;SDS011;41120;51.820;20.804;2023-12-20T04:38:06;20.90;;;12.55;;
51957;SDS011;41120;51.820;20.804;2023-12-20T04:40:32;41.80;;;24.10;;
51957;SDS011;41120;51.820;20.804;2023-12-20T04:42:58;27.45;;;17.13;;
51957;SDS011;41120;51.820;20.804;2023-12-20T04:45:24;20.23;;;12.20;;
51957;SDS011;41120;51.820;20.804;2023-12-20T04:47:51;23.92;;;14.73;;
51957;SDS011;41120;51.820;20.804;2023-12-20T04:50:17;47.97;;;26.40;;
51957;SDS011;41120;51.820;20.804;2023-12-20T04:52:45;103.88;;;57.05;;
51957;SDS011;41120;51.820;20.804;2023-12-20T04:55:26;29.43;;;20.63;;
51957;SDS011;41120;51.820;20.804;2023-12-20T04:58:02;25.73;;;16.80;;
51957;SDS011;41120;51.820;20.804;2023-12-20T05:03:27;19.08;;;11.77;;
51957;SDS011;41120;51.820;20.804;2023-12-20T05:05:55;19.40;;;11.68;;
51957;SDS011;41120;51.820;20.804;2023-12-20T05:08:36;28.85;;;20.75;;
51957;SDS011;41120;51.820;20.804;2023-12-20T05:23:11;15.93;;;11.07;;
51957;SDS011;41120;51.820;20.804;2023-12-20T05:25:41;17.60;;;10.75;;
51957;SDS011;41120;51.820;20.804;2023-12-20T05:28:07;16.00;;;11.45;;
51957;SDS011;41120;51.820;20.804;2023-12-20T05:30:34;16.27;;;11.18;;
51957;SDS011;41120;51.820;20.804;2023-12-20T05:32:59;16.67;;;10.70;;
51957;SDS011;41120;51.820;20.804;2023-12-20T05:35:32;18.08;;;11.25;;
51957;SDS011;41120;51.820;20.804;2023-12-20T05:38:06;16.30;;;10.70;;
51957;SDS011;41120;51.820;20.804;2023-12-20T05:40:45;19.45;;;11.73;;
51957;SDS011;41120;51.820;20.804;2023-12-20T05:52:14;33.28;;;17.65;;
51957;SDS011;41120;51.820;20.804;2023-12-20T05:54:40;23.47;;;14.93;;
51957;SDS011;41120;51.820;20.804;2023-12-20T05:57:06;20.67;;;12.70;;
51957;SDS011;41120;51.820;20.804;2023-12-20T05:59:32;26.08;;;15.95;;
51957;SDS011;41120;51.820;20.804;2023-12-20T06:01:58;21.45;;;13.25;;
51957;SDS011;41120;51.820;20.804;2023-12-20T06:04:24;25.30;;;15.13;;
51957;SDS011;41120;51.820;20.804;2023-12-20T06:06:50;22.10;;;12.88;;
51957;SDS011;41120;51.820;20.804;2023-12-20T06:09:16;18.38;;;12.05;;
51957;SDS011;41120;51.820;20.804;2023-12-20T06:11:42;23.77;;;15.03;;
51957;SDS011;41120;51.820;20.804;2023-12-20T06:14:08;16.50;;;11.23;;
51957;SDS011;41120;51.820;20.804;2023-12-20T06:16:34;30.88;;;17.77;;
51957;SDS011;41120;51.820;20.804;2023-12-20T06:19:00;28.00;;;16.60;;
51957;SDS011;41120;51.820;20.804;2023-12-20T06:21:27;32.45;;;20.80;;
51957;SDS011;41120;51.820;20.804;2023-12-20T06:26:49;32.63;;;18.63;;
51957;SDS011;41120;51.820;20.804;2023-12-20T06:29:23;20.83;;;12.57;;
51957;SDS011;41120;51.820;20.804;2023-12-20T06:31:49;15.25;;;11.25;;
51957;SDS011;41120;51.820;20.804;2023-12-20T06:37:17;25.10;;;15.27;;
51957;SDS011;41120;51.820;20.804;2023-12-20T06:42:49;20.45;;;12.63;;
51957;SDS011;41120;51.820;20.804;2023-12-20T06:51:19;39.25;;;21.92;;
51957;SDS011;41120;51.820;20.804;2023-12-20T06:53:49;29.75;;;16.77;;
51957;SDS011;41120;51.820;20.804;2023-12-20T06:56:20;34.55;;;16.08;;
51957;SDS011;41120;51.820;20.804;2023-12-20T07:01:50;47.80;;;24.27;;
51957;SDS011;41120;51.820;20.804;2023-12-20T07:04:21;37.95;;;20.45;;
51957;SDS011;41120;51.820;20.804;2023-12-20T07:17:48;20.15;;;12.20;;
51957;SDS011;41120;51.820;20.804;2023-12-20T07:20:25;22.02;;;12.40;;
51957;SDS011;41120;51.820;20.804;2023-12-20T07:25:43;17.73;;;11.25;;
51957;SDS011;41120;51.820;20.804;2023-12-20T07:28:28;26.70;;;14.25;;
51957;SDS011;41120;51.820;20.804;2023-12-20T07:31:00;21.77;;;12.02;;
51957;SDS011;41120;51.820;20.804;2023-12-20T07:33:30;31.70;;;17.17;;
51957;SDS011;41120;51.820;20.804;2023-12-20T07:35:56;22.08;;;12.55;;
51957;SDS011;41120;51.820;20.804;2023-12-20T07:38:23;22.67;;;12.82;;
51957;SDS011;41120;51.820;20.804;2023-12-20T07:40:50;22.88;;;11.95;;
51957;SDS011;41120;51.820;20.804;2023-12-20T07:43:35;20.05;;;11.05;;
51957;SDS011;41120;51.820;20.804;2023-12-20T07:48:51;31.88;;;16.55;;
51957;SDS011;41120;51.820;20.804;2023-12-20T08:05:51;17.58;;;11.23;;
51957;SDS011;41120;51.820;20.804;2023-12-20T08:08:25;18.73;;;10.20;;
51957;SDS011;41120;51.820;20.804;2023-12-20T08:10:52;19.05;;;11.45;;
51957;SDS011;41120;51.820;20.804;2023-12-20T08:22:47;15.10;;;8.73;;
51957;SDS011;41120;51.820;20.804;2023-12-20T08:37:15;21.10;;;12.48;;
51957;SDS011;41120;51.820;20.804;2023-12-20T08:45:00;10.88;;;6.88;;
51957;SDS011;41120;51.820;20.804;2023-12-20T08:47:27;17.30;;;10.15;;
51957;SDS011;41120;51.820;20.804;2023-12-20T08:49:55;12.50;;;8.00;;
51957;SDS011;41120;51.820;20.804;2023-12-20T08:54:56;21.38;;;12.68;;
51957;SDS011;41120;51.820;20.804;2023-12-20T08:57:36;14.27;;;9.18;;
51957;SDS011;41120;51.820;20.804;2023-12-20T09:05:27;24.73;;;14.05;;
51957;SDS011;41120;51.820;20.804;2023-12-20T09:08:01;13.38;;;8.70;;
51957;SDS011;41120;51.820;20.804;2023-12-20T09:10:30;18.63;;;11.38;;
51957;SDS011;41120;51.820;20.804;2023-12-20T09:12:59;17.38;;;10.90;;
51957;SDS011;41120;51.820;20.804;2023-12-20T09:18:12;12.23;;;7.32;;
51957;SDS011;41120;51.820;20.804;2023-12-20T09:31:55;12.70;;;7.97;;
51957;SDS011;41120;51.820;20.804;2023-12-20T09:34:32;10.95;;;7.63;;
51957;SDS011;41120;51.820;20.804;2023-12-20T09:37:10;11.55;;;7.82;;
51957;SDS011;41120;51.820;20.804;2023-12-20T09:39:36;9.63;;;6.53;;
51957;SDS011;41120;51.820;20.804;2023-12-20T09:42:11;12.73;;;8.23;;
51957;SDS011;41120;51.820;20.804;2023-12-20T09:47:20;12.35;;;7.93;;
51957;SDS011;41120;51.820;20.804;2023-12-20T09:49:48;10.65;;;7.57;;
51957;SDS011;41120;51.820;20.804;2023-12-20T09:52:15;13.35;;;8.30;;
51957;SDS011;41120;51.820;20.804;2023-12-20T09:54:54;11.70;;;7.43;;
51957;SDS011;41120;51.820;20.804;2023-12-20T10:00:18;15.82;;;10.07;;
51957;SDS011;41120;51.820;20.804;2023-12-20T10:08:12;20.58;;;11.48;;
51957;SDS011;41120;51.820;20.804;2023-12-20T10:10:38;12.15;;;7.63;;
51957;SDS011;41120;51.820;20.804;2023-12-20T10:13:05;12.73;;;7.75;;
51957;SDS011;41120;51.820;20.804;2023-12-20T10:15:37;13.50;;;8.27;;
51957;SDS011;41120;51.820;20.804;2023-12-20T10:18:06;14.15;;;8.07;;
51957;SDS011;41120;51.820;20.804;2023-12-20T10:20:43;11.40;;;7.68;;
51957;SDS011;41120;51.820;20.804;2023-12-20T10:23:13;11.40;;;7.55;;
51957;SDS011;41120;51.820;20.804;2023-12-20T10:25:55;18.92;;;10.52;;
51957;SDS011;41120;51.820;20.804;2023-12-20T10:28:21;15.60;;;9.30;;
51957;SDS011;41120;51.820;20.804;2023-12-20T10:31:01;24.60;;;12.55;;
51957;SDS011;41120;51.820;20.804;2023-12-20T10:33:35;20.42;;;10.80;;
51957;SDS011;41120;51.820;20.804;2023-12-20T10:36:02;19.73;;;10.93;;
51957;SDS011;41120;51.820;20.804;2023-12-20T10:38:30;13.68;;;8.50;;
51957;SDS011;41120;51.820;20.804;2023-12-20T10:40:57;14.10;;;9.60;;
51957;SDS011;41120;51.820;20.804;2023-12-20T10:43:28;14.48;;;9.05;;
51957;SDS011;41120;51.820;20.804;2023-12-20T10:45:56;12.55;;;7.70;;
51957;SDS011;41120;51.820;20.804;2023-12-20T10:48:24;11.38;;;8.52;;
51957;SDS011;41120;51.820;20.804;2023-12-20T10:50:57;12.02;;;8.32;;
51957;SDS011;41120;51.820;20.804;2023-12-20T10:53:29;10.90;;;8.00;;
51957;SDS011;41120;51.820;20.804;2023-12-20T10:55:57;9.32;;;6.40;;
51957;SDS011;41120;51.820;20.804;2023-12-20T11:08:12;8.85;;;6.55;;
51957;SDS011;41120;51.820;20.804;2023-12-20T11:10:51;11.55;;;9.18;;
51957;SDS011;41120;51.820;20.804;2023-12-20T11:13:23;9.38;;;6.20;;
51957;SDS011;41120;51.820;20.804;2023-12-20T11:15:52;11.35;;;7.47;;
51957;SDS011;41120;51.820;20.804;2023-12-20T11:18:19;11.63;;;7.82;;
51957;SDS011;41120;51.820;20.804;2023-12-20T11:20:46;7.70;;;4.88;;
51957;SDS011;41120;51.820;20.804;2023-12-20T11:23:12;7.60;;;5.70;;
51957;SDS011;41120;51.820;20.804;2023-12-20T11:25:47;10.20;;;6.22;;
51957;SDS011;41120;51.820;20.804;2023-12-20T11:28:16;9.10;;;6.10;;
51957;SDS011;41120;51.820;20.804;2023-12-20T11:30:47;10.80;;;6.10;;
51957;SDS011;41120;51.820;20.804;2023-12-20T11:33:16;11.50;;;6.60;;
51957;SDS011;41120;51.820;20.804;2023-12-20T11:35:49;11.18;;;7.13;;
51957;SDS011;41120;51.820;20.804;2023-12-20T11:40:49;20.15;;;10.50;;
51957;SDS011;41120;51.820;20.804;2023-12-20T11:43:32;17.02;;;11.68;;
51957;SDS011;41120;51.820;20.804;2023-12-20T11:46:05;18.40;;;11.15;;
51957;SDS011;41120;51.820;20.804;2023-12-20T11:48:33;14.27;;;9.05;;
51957;SDS011;41120;51.820;20.804;2023-12-20T11:51:08;15.98;;;10.70;;
51957;SDS011;41120;51.820;20.804;2023-12-20T11:53:40;18.40;;;10.80;;
51957;SDS011;41120;51.820;20.804;2023-12-20T11:56:06;15.70;;;9.70;;
51957;SDS011;41120;51.820;20.804;2023-12-20T11:58:33;18.53;;;11.67;;
51957;SDS011;41120;51.820;20.804;2023-12-20T12:01:00;17.52;;;10.75;;
51957;SDS011;41120;51.820;20.804;2023-12-20T12:03:28;7.95;;;5.00;;
51957;SDS011;41120;51.820;20.804;2023-12-20T12:05:54;14.18;;;9.80;;
51957;SDS011;41120;51.820;20.804;2023-12-20T12:08:23;9.97;;;7.00;;
51957;SDS011;41120;51.820;20.804;2023-12-20T12:10:50;10.45;;;6.40;;
51957;SDS011;41120;51.820;20.804;2023-12-20T12:13:17;7.47;;;4.50;;
51957;SDS011;41120;51.820;20.804;2023-12-20T12:15:43;6.93;;;4.03;;
51957;SDS011;41120;51.820;20.804;2023-12-20T12:18:10;3.67;;;2.83;;
51957;SDS011;41120;51.820;20.804;2023-12-20T12:20:38;3.83;;;2.78;;
51957;SDS011;41120;51.820;20.804;2023-12-20T12:23:08;7.82;;;3.92;;
51957;SDS011;41120;51.820;20.804;2023-12-20T12:28:34;7.60;;;4.25;;
51957;SDS011;41120;51.820;20.804;2023-12-20T12:31:14;7.63;;;4.40;;
51957;SDS011;41120;51.820;20.804;2023-12-20T12:34:01;8.30;;;4.70;;
51957;SDS011;41120;51.820;20.804;2023-12-20T12:39:24;5.43;;;3.33;;
51957;SDS011;41120;51.820;20.804;2023-12-20T12:42:09;6.05;;;3.50;;
51957;SDS011;41120;51.820;20.804;2023-12-20T12:44:40;4.97;;;3.47;;
51957;SDS011;41120;51.820;20.804;2023-12-20T12:47:14;4.55;;;3.38;;
51957;SDS011;41120;51.820;20.804;2023-12-20T12:49:49;3.67;;;2.80;;
51957;SDS011;41120;51.820;20.804;2023-12-20T12:55:14;4.50;;;3.05;;
51957;SDS011;41120;51.820;20.804;2023-12-20T12:57:46;4.90;;;2.83;;
51957;SDS011;41120;51.820;20.804;2023-12-20T13:03:09;5.20;;;2.97;;
51957;SDS011;41120;51.820;20.804;2023-12-20T13:05:35;10.95;;;3.40;;
51957;SDS011;41120;51.820;20.804;2023-12-20T13:10:32;4.88;;;3.25;;
51957;SDS011;41120;51.820;20.804;2023-12-20T13:12:58;5.50;;;3.55;;
51957;SDS011;41120;51.820;20.804;2023-12-20T13:15:32;4.25;;;2.78;;
51957;SDS011;41120;51.820;20.804;2023-12-20T13:17:58;8.93;;;6.18;;
51957;SDS011;41120;51.820;20.804;2023-12-20T13:20:26;6.55;;;4.40;;
51957;SDS011;41120;51.820;20.804;2023-12-20T13:22:53;4.85;;;3.25;;
51957;SDS011;41120;51.820;20.804;2023-12-20T13:25:19;6.95;;;3.65;;
51957;SDS011;41120;51.820;20.804;2023-12-20T13:27:46;9.63;;;3.80;;
51957;SDS011;41120;51.820;20.804;2023-12-20T13:30:16;6.25;;;3.70;;
51957;SDS011;41120;51.820;20.804;2023-12-20T13:32:54;5.53;;;3.60;;
51957;SDS011;41120;51.820;20.804;2023-12-20T13:35:21;7.88;;;4.30;;
51957;SDS011;41120;51.820;20.804;2023-12-20T13:38:00;9.68;;;5.05;;
51957;SDS011;41120;51.820;20.804;2023-12-20T13:43:26;8.23;;;4.88;;
51957;SDS011;41120;51.820;20.804;2023-12-20T13:45:58;7.50;;;4.68;;
51957;SDS011;41120;51.820;20.804;2023-12-20T13:48:24;8.85;;;5.40;;
51957;SDS011;41120;51.820;20.804;2023-12-20T13:50:50;8.93;;;5.60;;
51957;SDS011;41120;51.820;20.804;2023-12-20T13:53:16;8.35;;;5.43;;
51957;SDS011;41120;51.820;20.804;2023-12-20T13:55:42;12.00;;;7.00;;
51957;SDS011;41120;51.820;20.804;2023-12-20T14:00:40;14.18;;;8.82;;
51957;SDS011;41120;51.820;20.804;2023-12-20T14:03:07;13.10;;;8.88;;
51957;SDS011;41120;51.820;20.804;2023-12-20T14:05:35;11.63;;;8.05;;
51957;SDS011;41120;51.820;20.804;2023-12-20T14:08:01;16.38;;;10.23;;
51957;SDS011;41120;51.820;20.804;2023-12-20T14:10:27;11.50;;;8.17;;
51957;SDS011;41120;51.820;20.804;2023-12-20T14:12:55;14.32;;;10.30;;
51957;SDS011;41120;51.820;20.804;2023-12-20T14:15:20;11.73;;;8.50;;
51957;SDS011;41120;51.820;20.804;2023-12-20T14:17:47;13.90;;;9.10;;
51957;SDS011;41120;51.820;20.804;2023-12-20T14:22:44;10.57;;;7.38;;
51957;SDS011;41120;51.820;20.804;2023-12-20T14:30:39;13.57;;;8.15;;
51957;SDS011;41120;51.820;20.804;2023-12-20T14:33:05;14.07;;;9.15;;
51957;SDS011;41120;51.820;20.804;2023-12-20T14:35:31;13.70;;;9.63;;
51957;SDS011;41120;51.820;20.804;2023-12-20T14:38:00;15.40;;;9.35;;
51957;SDS011;41120;51.820;20.804;2023-12-20T14:40:27;12.90;;;8.07;;
51957;SDS011;41120;51.820;20.804;2023-12-20T14:42:54;13.68;;;8.15;;
51957;SDS011;41120;51.820;20.804;2023-12-20T14:45:20;11.13;;;7.35;;
51957;SDS011;41120;51.820;20.804;2023-12-20T14:47:46;10.23;;;7.10;;
51957;SDS011;41120;51.820;20.804;2023-12-20T14:50:19;15.48;;;6.93;;
51957;SDS011;41120;51.820;20.804;2023-12-20T14:52:51;12.02;;;7.55;;
51957;SDS011;41120;51.820;20.804;2023-12-20T14:55:19;11.98;;;6.65;;
51957;SDS011;41120;51.820;20.804;2023-12-20T15:00:35;12.63;;;6.72;;
51957;SDS011;41120;51.820;20.804;2023-12-20T15:03:02;16.33;;;7.18;;
51957;SDS011;41120;51.820;20.804;2023-12-20T15:05:32;10.40;;;6.95;;
51957;SDS011;41120;51.820;20.804;2023-12-20T15:07:59;9.95;;;6.78;;
51957;SDS011;41120;51.820;20.804;2023-12-20T15:10:25;10.93;;;6.40;;
51957;SDS011;41120;51.820;20.804;2023-12-20T15:12:53;10.50;;;6.72;;
51957;SDS011;41120;51.820;20.804;2023-12-20T15:15:21;14.57;;;7.40;;
51957;SDS011;41120;51.820;20.804;2023-12-20T15:17:50;13.68;;;8.57;;
51957;SDS011;41120;51.820;20.804;2023-12-20T15:20:20;16.15;;;7.32;;
51957;SDS011;41120;51.820;20.804;2023-12-20T15:25:18;16.13;;;8.40;;
51957;SDS011;41120;51.820;20.804;2023-12-20T15:27:50;17.05;;;10.25;;
51957;SDS011;41120;51.820;20.804;2023-12-20T15:30:19;8.60;;;6.25;;
51957;SDS011;41120;51.820;20.804;2023-12-20T15:32:47;13.25;;;7.05;;
51957;SDS011;41120;51.820;20.804;2023-12-20T15:46:22;25.15;;;12.98;;
51957;SDS011;41120;51.820;20.804;2023-12-20T15:48:50;34.17;;;16.38;;
51957;SDS011;41120;51.820;20.804;2023-12-20T15:51:26;25.02;;;14.73;;
51957;SDS011;41120;51.820;20.804;2023-12-20T15:54:00;24.70;;;13.18;;
51957;SDS011;41120;51.820;20.804;2023-12-20T15:56:37;16.20;;;10.20;;
51957;SDS011;41120;51.820;20.804;2023-12-20T15:59:07;14.60;;;7.00;;
51957;SDS011;41120;51.820;20.804;2023-12-20T16:04:06;11.82;;;6.47;;
51957;SDS011;41120;51.820;20.804;2023-12-20T16:06:32;9.27;;;5.73;;
51957;SDS011;41120;51.820;20.804;2023-12-20T16:09:01;11.68;;;5.85;;
51957;SDS011;41120;51.820;20.804;2023-12-20T16:11:26;15.23;;;6.30;;
51957;SDS011;41120;51.820;20.804;2023-12-20T16:13:55;9.23;;;5.63;;
51957;SDS011;41120;51.820;20.804;2023-12-20T16:16:21;10.95;;;5.63;;
51957;SDS011;41120;51.820;20.804;2023-12-20T16:18:48;11.73;;;6.30;;
51957;SDS011;41120;51.820;20.804;2023-12-20T16:21:14;13.47;;;5.73;;
51957;SDS011;41120;51.820;20.804;2023-12-20T16:23:40;10.23;;;6.60;;
51957;SDS011;41120;51.820;20.804;2023-12-20T16:26:06;8.40;;;5.40;;
51957;SDS011;41120;51.820;20.804;2023-12-20T16:28:33;12.23;;;5.82;;
51957;SDS011;41120;51.820;20.804;2023-12-20T16:30:58;9.40;;;5.10;;
51957;SDS011;41120;51.820;20.804;2023-12-20T16:33:25;8.30;;;4.82;;
51957;SDS011;41120;51.820;20.804;2023-12-20T16:35:51;10.67;;;5.17;;
51957;SDS011;41120;51.820;20.804;2023-12-20T16:38:17;12.32;;;6.72;;
51957;SDS011;41120;51.820;20.804;2023-12-20T16:40:43;15.20;;;5.60;;
51957;SDS011;41120;51.820;20.804;2023-12-20T16:43:10;9.15;;;5.38;;
51957;SDS011;41120;51.820;20.804;2023-12-20T16:45:36;12.47;;;4.83;;
51957;SDS011;41120;51.820;20.804;2023-12-20T16:48:02;12.40;;;5.35;;
51957;SDS011;41120;51.820;20.804;2023-12-20T16:50:28;7.57;;;5.25;;
51957;SDS011;41120;51.820;20.804;2023-12-20T16:52:55;11.77;;;4.90;;
51957;SDS011;41120;51.820;20.804;2023-12-20T16:55:21;7.93;;;4.32;;
51957;SDS011;41120;51.820;20.804;2023-12-20T16:57:47;8.43;;;4.43;;
51957;SDS011;41120;51.820;20.804;2023-12-20T17:00:13;9.57;;;4.60;;
51957;SDS011;41120;51.820;20.804;2023-12-20T17:02:40;10.88;;;4.60;;
51957;SDS011;41120;51.820;20.804;2023-12-20T17:05:16;11.82;;;4.63;;
51957;SDS011;41120;51.820;20.804;2023-12-20T17:07:51;10.20;;;4.70;;
51957;SDS011;41120;51.820;20.804;2023-12-20T17:10:25;9.80;;;5.57;;
51957;SDS011;41120;51.820;20.804;2023-12-20T17:18:28;12.27;;;5.30;;
51957;SDS011;41120;51.820;20.804;2023-12-20T17:26:41;7.85;;;4.57;;
51957;SDS011;41120;51.820;20.804;2023-12-20T17:31:42;12.85;;;4.10;;
51957;SDS011;41120;51.820;20.804;2023-12-20T17:39:56;9.23;;;4.68;;
51957;SDS011;41120;51.820;20.804;2023-12-20T17:50:08;9.73;;;4.90;;
51957;SDS011;41120;51.820;20.804;2023-12-20T17:52:41;11.88;;;5.47;;
51957;SDS011;41120;51.820;20.804;2023-12-20T17:55:09;9.95;;;5.20;;
51957;SDS011;41120;51.820;20.804;2023-12-20T18:00:12;10.48;;;5.45;;
51957;SDS011;41120;51.820;20.804;2023-12-20T18:02:40;9.85;;;5.32;;
51957;SDS011;41120;51.820;20.804;2023-12-20T18:05:17;12.30;;;5.88;;
51957;SDS011;41120;51.820;20.804;2023-12-20T18:07:43;12.48;;;5.35;;
51957;SDS011;41120;51.820;20.804;2023-12-20T18:15:19;10.27;;;6.40;;